Time;durP1;ratioP1;P1;durP2;ratioP2;P2;SDS_P1;SDS_P2;PMS_P1;PMS_P2;Temp;Humidity;BMP_temperature;BMP_pressure;BME280_temperature;BME280_humidity;BME280_pressure;Samples;Min_cycle;Max_cycle;Signal;HPM_P1;HPM_P2
2022/09/02 00:01:39;;;;;;;0.65;0.50;;;13.90;99.90;;;;;;5112266;28;20044;-74
2022/09/02 00:04:08;;;;;;;1.25;0.75;;;13.90;99.90;;;;;;5114071;28;20067;-74
2022/09/02 00:06:35;;;;;;;1.73;0.68;;;13.90;99.90;;;;;;5095027;28;20054;-74
2022/09/02 00:09:03;;;;;;;2.05;0.75;;;13.90;99.90;;;;;;5112370;28;20043;-74
2022/09/02 00:11:30;;;;;;;1.25;0.73;;;13.90;99.90;;;;;;5112049;28;20107;-74
2022/09/02 00:13:57;;;;;;;0.70;0.50;;;13.80;99.90;;;;;;5112197;28;20110;-74
2022/09/02 00:16:24;;;;;;;2.88;0.55;;;13.80;99.90;;;;;;5111520;28;20040;-74
2022/09/02 00:18:52;;;;;;;3.92;1.00;;;13.70;99.90;;;;;;5112014;28;20232;-74
2022/09/02 00:21:19;;;;;;;3.72;0.70;;;13.70;99.90;;;;;;5111976;28;20047;-74
2022/09/02 00:23:45;;;;;;;2.97;0.80;;;13.70;99.90;;;;;;5112052;28;20375;-74
2022/09/02 00:26:12;;;;;;;4.00;0.80;;;13.60;99.90;;;;;;5111661;28;20059;-74
2022/09/02 00:28:39;;;;;;;1.67;0.68;;;13.60;99.90;;;;;;5111763;28;20044;-74
2022/09/02 00:31:05;;;;;;;0.80;0.60;;;13.60;99.90;;;;;;5094435;28;20075;-73
2022/09/02 00:33:31;;;;;;;2.47;0.70;;;13.50;99.90;;;;;;5111851;28;20455;-74
2022/09/02 00:36:01;;;;;;;1.17;0.40;;;13.50;99.90;;;;;;5112386;28;20040;-74
2022/09/02 00:38:28;;;;;;;0.95;0.75;;;13.40;99.90;;;;;;5111798;28;20482;-74
2022/09/02 00:40:54;;;;;;;1.38;0.77;;;13.40;99.90;;;;;;5111631;28;20043;-74
2022/09/02 00:43:40;;;;;;;0.95;0.60;;;13.40;99.90;;;;;;5111846;28;20051;-74
2022/09/02 00:46:07;;;;;;;1.15;0.70;;;13.40;99.90;;;;;;5110769;28;20101;-73
2022/09/02 00:48:34;;;;;;;3.58;0.68;;;13.40;99.90;;;;;;5111234;28;20044;-74
2022/09/02 00:51:02;;;;;;;2.33;0.57;;;13.40;99.90;;;;;;5111289;28;20454;-74
2022/09/02 00:53:29;;;;;;;2.50;0.60;;;13.40;99.90;;;;;;5111182;28;20093;-75
2022/09/02 00:55:56;;;;;;;1.20;0.85;;;13.30;99.90;;;;;;5111002;28;20093;-74
2022/09/02 00:58:27;;;;;;;1.85;0.70;;;13.30;99.90;;;;;;5111449;28;20130;-74
2022/09/02 01:00:56;;;;;;;0.50;0.50;;;13.30;99.90;;;;;;5111193;28;20525;-74
2022/09/02 01:03:24;;;;;;;2.25;0.60;;;13.30;99.90;;;;;;5111206;28;20521;-74
2022/09/02 01:05:51;;;;;;;2.25;0.50;;;13.30;99.90;;;;;;5110759;28;20050;-75
2022/09/02 01:08:23;;;;;;;1.05;0.57;;;13.30;99.90;;;;;;5111272;28;20402;-74
2022/09/02 01:10:48;;;;;;;1.92;1.00;;;13.30;99.90;;;;;;5111132;28;20493;-74
2022/09/02 01:13:17;;;;;;;1.02;0.55;;;13.30;99.90;;;;;;5110998;28;20071;-75
2022/09/02 01:15:50;;;;;;;1.90;0.50;;;13.20;99.90;;;;;;5110615;28;20039;-74
2022/09/02 01:18:23;;;;;;;2.55;0.60;;;13.20;99.90;;;;;;5111270;28;20097;-75
2022/09/02 01:20:50;;;;;;;3.58;0.70;;;13.30;99.90;;;;;;5110780;28;20138;-74
2022/09/02 01:23:17;;;;;;;2.25;0.55;;;13.10;99.90;;;;;;5111057;28;20421;-74
2022/09/02 01:25:43;;;;;;;0.90;0.60;;;13.20;99.90;;;;;;5093332;28;20082;-75
2022/09/02 01:28:13;;;;;;;1.40;0.85;;;13.20;99.90;;;;;;5110625;28;20565;-74
2022/09/02 01:30:42;;;;;;;7.63;0.73;;;13.10;99.90;;;;;;5093537;28;20036;-74
2022/09/02 01:33:09;;;;;;;0.85;0.73;;;13.10;99.90;;;;;;5110690;28;20070;-74
2022/09/02 01:35:36;;;;;;;1.20;0.60;;;13.10;99.90;;;;;;5110374;28;20082;-74
2022/09/02 01:38:02;;;;;;;1.88;0.95;;;13.10;99.90;;;;;;5110247;28;20047;-74
2022/09/02 01:40:28;;;;;;;1.80;0.77;;;13.10;99.90;;;;;;5110844;28;20062;-74
2022/09/02 01:43:08;;;;;;;3.00;0.73;;;13.10;99.90;;;;;;5110534;28;20048;-74
2022/09/02 01:45:35;;;;;;;0.98;0.57;;;13.10;99.90;;;;;;5110358;28;20058;-74
2022/09/02 01:48:02;;;;;;;0.65;0.60;;;13.10;99.90;;;;;;5110786;28;20043;-74
2022/09/02 01:50:30;;;;;;;1.25;0.60;;;13.10;99.90;;;;;;5099641;28;20050;-72
2022/09/02 01:52:56;;;;;;;8.27;1.23;;;13.10;99.90;;;;;;5131286;28;20058;-74
2022/09/02 01:55:22;;;;;;;3.38;0.80;;;13.10;99.90;;;;;;5120231;28;20056;-74
2022/09/02 01:57:47;;;;;;;0.98;0.80;;;13.00;99.90;;;;;;5110060;28;20127;-74
2022/09/02 02:00:15;;;;;;;2.28;0.50;;;12.90;99.90;;;;;;5111392;28;20042;-74
2022/09/02 02:02:41;;;;;;;1.02;0.60;;;13.00;99.90;;;;;;5110092;28;20130;-74
2022/09/02 02:05:07;;;;;;;4.22;0.70;;;13.00;99.90;;;;;;5109855;28;20122;-74
2022/09/02 02:07:34;;;;;;;5.55;1.00;;;13.00;99.90;;;;;;5109949;28;20116;-74
2022/09/02 02:09:59;;;;;;;5.78;1.00;;;13.00;99.90;;;;;;5111381;28;20320;-74
2022/09/02 02:12:25;;;;;;;1.27;0.80;;;12.90;99.90;;;;;;5110209;28;20046;-74
2022/09/02 02:14:50;;;;;;;2.10;0.60;;;12.90;99.90;;;;;;5109732;28;20051;-74
2022/09/02 02:17:16;;;;;;;1.27;0.70;;;12.90;99.90;;;;;;5110122;28;20036;-74
2022/09/02 02:19:42;;;;;;;2.22;0.90;;;12.90;99.90;;;;;;5109845;28;20122;-74
2022/09/02 02:22:08;;;;;;;3.50;1.05;;;12.90;99.90;;;;;;5109909;28;20093;-74
2022/09/02 02:24:34;;;;;;;1.95;0.70;;;12.90;99.90;;;;;;5110038;28;20039;-74
2022/09/02 02:27:00;;;;;;;1.20;0.70;;;12.90;99.90;;;;;;5110757;28;20489;-74
2022/09/02 02:29:26;;;;;;;1.02;0.88;;;12.90;99.90;;;;;;5109734;28;20047;-74
2022/09/02 02:31:52;;;;;;;2.17;0.70;;;12.90;99.90;;;;;;5109786;28;20063;-74
2022/09/02 02:34:18;;;;;;;2.15;0.90;;;12.90;99.90;;;;;;5111114;28;20110;-74
2022/09/02 02:36:43;;;;;;;1.33;0.82;;;12.80;99.90;;;;;;5109291;28;20040;-74
2022/09/02 02:39:11;;;;;;;4.00;0.90;;;12.80;99.90;;;;;;5109788;28;20520;-74
2022/09/02 02:41:38;;;;;;;2.97;0.85;;;12.80;99.90;;;;;;5109966;28;20093;-74
2022/09/02 02:44:04;;;;;;;3.40;1.10;;;12.80;99.90;;;;;;5109785;28;20047;-75
2022/09/02 02:46:30;;;;;;;1.25;1.10;;;12.70;99.90;;;;;;5109431;28;20036;-74
2022/09/02 02:48:58;;;;;;;0.75;0.75;;;12.80;99.90;;;;;;5109761;28;20520;-74
2022/09/02 02:51:24;;;;;;;3.20;0.88;;;12.80;99.90;;;;;;5109885;28;20055;-74
2022/09/02 02:53:49;;;;;;;1.85;0.95;;;12.80;99.90;;;;;;5109928;28;20035;-74
2022/09/02 02:56:15;;;;;;;1.70;0.80;;;12.70;99.90;;;;;;5109623;28;20111;-74
2022/09/02 02:58:41;;;;;;;3.13;0.90;;;12.80;99.90;;;;;;5110057;28;20071;-74
2022/09/02 03:01:07;;;;;;;0.98;0.88;;;12.80;99.90;;;;;;5113742;28;20515;-74
2022/09/02 03:03:33;;;;;;;2.40;1.02;;;12.70;99.90;;;;;;5115070;28;20035;-74
2022/09/02 03:05:58;;;;;;;1.23;0.68;;;12.70;99.90;;;;;;5113599;28;20374;-74
2022/09/02 03:08:25;;;;;;;3.45;0.93;;;12.70;99.90;;;;;;5113913;28;20127;-74
2022/09/02 03:10:53;;;;;;;3.13;1.10;;;12.70;99.90;;;;;;5135066;28;20047;-74
2022/09/02 03:13:21;;;;;;;1.20;1.00;;;12.70;99.90;;;;;;5132989;28;20040;-74
2022/09/02 03:15:46;;;;;;;3.42;0.98;;;12.70;99.90;;;;;;5113300;28;20563;-74
2022/09/02 03:18:13;;;;;;;1.20;1.10;;;12.70;99.90;;;;;;5113486;28;20047;-74
2022/09/02 03:20:40;;;;;;;1.00;0.77;;;12.70;99.90;;;;;;5113575;28;20043;-74
2022/09/02 03:23:06;;;;;;;1.52;1.00;;;12.60;99.90;;;;;;5114814;28;20036;-74
2022/09/02 03:25:33;;;;;;;1.38;0.75;;;12.70;99.90;;;;;;5113480;28;20128;-74
2022/09/02 03:28:00;;;;;;;1.73;0.82;;;12.70;99.90;;;;;;5113344;28;20153;-74
2022/09/02 03:30:28;;;;;;;17.27;1.73;;;12.70;99.90;;;;;;5114715;28;20036;-74
2022/09/02 03:32:56;;;;;;;1.23;1.02;;;12.60;99.90;;;;;;5113588;28;20051;-74
2022/09/02 03:35:23;;;;;;;2.10;1.13;;;12.60;99.90;;;;;;5112902;28;20043;-74
2022/09/02 03:37:49;;;;;;;3.85;1.10;;;12.60;99.90;;;;;;5113296;28;20035;-74
2022/09/02 03:40:18;;;;;;;1.80;1.10;;;12.60;99.90;;;;;;5113413;28;20104;-74
2022/09/02 03:42:44;;;;;;;5.05;0.88;;;12.60;99.90;;;;;;5113614;28;20047;-74
2022/09/02 03:45:11;;;;;;;3.03;0.93;;;12.60;99.90;;;;;;5112962;28;20631;-74
2022/09/02 03:47:42;;;;;;;4.57;0.80;;;12.60;99.90;;;;;;5113368;28;20397;-73
2022/09/02 03:50:08;;;;;;;1.02;0.90;;;12.50;99.90;;;;;;5113070;28;20047;-74
2022/09/02 03:52:35;;;;;;;3.45;1.08;;;12.50;99.90;;;;;;5113449;28;20039;-74
2022/09/02 03:55:03;;;;;;;2.15;0.88;;;12.50;99.90;;;;;;5113011;28;20043;-74
2022/09/02 03:57:28;;;;;;;0.95;0.80;;;12.50;99.90;;;;;;5113296;28;20075;-75
2022/09/02 03:59:54;;;;;;;2.75;1.20;;;12.50;99.90;;;;;;5112953;28;20570;-73
2022/09/02 04:02:19;;;;;;;2.97;0.90;;;12.40;99.90;;;;;;5112943;28;20123;-73
2022/09/02 04:04:45;;;;;;;2.35;1.10;;;12.40;99.90;;;;;;5114041;28;20040;-75
2022/09/02 04:07:11;;;;;;;2.50;1.00;;;12.40;99.90;;;;;;5112657;28;20436;-73
2022/09/02 04:09:36;;;;;;;2.17;1.20;;;12.30;99.90;;;;;;5112776;28;20036;-73
2022/09/02 04:12:03;;;;;;;3.85;1.40;;;12.30;99.90;;;;;;5111829;28;20039;-73
2022/09/02 04:14:30;;;;;;;2.35;1.17;;;12.30;99.90;;;;;;5113810;28;20078;-74
2022/09/02 04:16:55;;;;;;;4.80;1.15;;;12.30;99.90;;;;;;5112657;28;20043;-73
2022/09/02 04:19:21;;;;;;;1.73;0.98;;;12.30;99.90;;;;;;5112547;28;20659;-74
2022/09/02 04:21:47;;;;;;;1.67;1.05;;;12.30;99.90;;;;;;5112685;28;20051;-73
2022/09/02 04:24:13;;;;;;;5.07;1.70;;;12.40;99.90;;;;;;5112562;28;20071;-74
2022/09/02 04:26:39;;;;;;;0.80;0.80;;;12.30;99.90;;;;;;5112437;28;20132;-74
2022/09/02 04:29:06;;;;;;;1.73;0.90;;;12.20;99.90;;;;;;5113628;28;20046;-74
2022/09/02 04:31:32;;;;;;;2.90;0.98;;;12.20;99.90;;;;;;5113579;28;20413;-73
2022/09/02 04:33:59;;;;;;;3.28;1.00;;;12.20;99.90;;;;;;5112181;28;20038;-74
2022/09/02 04:36:25;;;;;;;2.78;1.27;;;12.20;99.90;;;;;;5112010;28;20035;-73
2022/09/02 04:38:51;;;;;;;2.28;0.90;;;12.30;99.90;;;;;;5112306;28;20551;-74
2022/09/02 04:41:21;;;;;;;2.40;1.17;;;12.20;99.90;;;;;;5112042;28;20059;-73
2022/09/02 04:43:48;;;;;;;3.33;1.10;;;12.20;99.90;;;;;;5112147;28;20092;-74
2022/09/02 04:46:15;;;;;;;4.90;1.00;;;12.30;99.90;;;;;;5111785;28;20051;-73
2022/09/02 04:48:41;;;;;;;2.80;1.75;;;12.20;99.90;;;;;;5112011;28;20047;-74
2022/09/02 04:51:11;;;;;;;2.22;1.08;;;12.20;99.90;;;;;;5094739;28;20048;-75
2022/09/02 04:53:37;;;;;;;1.17;1.00;;;12.20;99.90;;;;;;5113043;28;20039;-75
2022/09/02 04:56:07;;;;;;;1.55;1.27;;;12.30;99.90;;;;;;5111280;28;20043;-75
2022/09/02 04:58:34;;;;;;;1.27;0.98;;;12.20;99.90;;;;;;5111649;28;20039;-75
2022/09/02 05:01:05;;;;;;;3.72;1.20;;;12.20;99.90;;;;;;5111850;28;20485;-75
2022/09/02 05:03:30;;;;;;;2.43;1.20;;;12.20;99.90;;;;;;5111637;28;20048;-75
2022/09/02 05:06:02;;;;;;;3.15;1.10;;;12.30;99.90;;;;;;5111126;28;20069;-75
2022/09/02 05:08:27;;;;;;;1.25;1.13;;;12.20;99.90;;;;;;5112717;28;20047;-75
2022/09/02 05:10:53;;;;;;;4.10;1.20;;;12.30;99.90;;;;;;5111483;28;20063;-75
2022/09/02 05:13:18;;;;;;;2.92;1.20;;;12.40;99.90;;;;;;5111369;28;20039;-74
2022/09/02 05:15:44;;;;;;;1.85;1.20;;;12.40;99.90;;;;;;5111061;28;20036;-75
2022/09/02 05:18:10;;;;;;;3.10;0.90;;;12.40;99.90;;;;;;5111531;28;20405;-75
2022/09/02 05:20:41;;;;;;;2.47;1.50;;;12.40;99.90;;;;;;5111225;28;20047;-75
2022/09/02 05:23:07;;;;;;;2.53;1.58;;;12.50;99.90;;;;;;5111549;28;20140;-74
2022/09/02 05:25:35;;;;;;;3.08;1.20;;;12.50;99.90;;;;;;5110909;28;20474;-74
2022/09/02 05:28:00;;;;;;;1.65;1.17;;;12.60;99.90;;;;;;5112377;28;20405;-74
2022/09/02 05:30:26;;;;;;;3.65;1.38;;;12.50;99.90;;;;;;5110943;28;20167;-75
2022/09/02 05:32:51;;;;;;;3.05;1.30;;;12.50;99.90;;;;;;5111154;28;20039;-75
2022/09/02 05:35:17;;;;;;;1.48;1.05;;;12.60;99.90;;;;;;5110770;28;20038;-73
2022/09/02 05:37:42;;;;;;;4.43;1.50;;;12.60;99.90;;;;;;5110676;28;20596;-73
2022/09/02 05:40:11;;;;;;;1.55;1.30;;;12.60;99.90;;;;;;5110950;28;20075;-73
2022/09/02 05:42:38;;;;;;;2.28;1.25;;;12.60;99.90;;;;;;5111090;28;20047;-73
2022/09/02 05:45:04;;;;;;;2.17;1.30;;;12.60;99.90;;;;;;5110462;28;20140;-73
2022/09/02 05:47:30;;;;;;;1.63;1.52;;;12.70;99.90;;;;;;5110721;28;20499;-74
2022/09/02 05:49:55;;;;;;;6.60;1.20;;;12.80;99.90;;;;;;5110639;28;20047;-74
2022/09/02 05:52:22;;;;;;;1.30;1.20;;;12.80;99.90;;;;;;5110652;28;20082;-74
2022/09/02 05:54:48;;;;;;;7.75;2.40;;;12.90;99.90;;;;;;5111803;28;20075;-74
2022/09/02 05:57:15;;;;;;;3.50;1.27;;;12.90;99.90;;;;;;5111908;28;20047;-74
2022/09/02 05:59:43;;;;;;;2.78;1.10;;;13.00;99.90;;;;;;5111912;28;20043;-74
2022/09/02 06:02:13;;;;;;;1.05;0.98;;;13.20;99.90;;;;;;5109774;28;20367;-74
2022/09/02 06:04:44;;;;;;;3.22;1.20;;;13.30;99.90;;;;;;5107955;28;20047;-74
2022/09/02 06:07:10;;;;;;;3.22;1.20;;;13.30;99.90;;;;;;5108451;28;20092;-74
2022/09/02 06:09:36;;;;;;;3.30;1.65;;;13.30;99.90;;;;;;5109250;28;20131;-74
2022/09/02 06:12:02;;;;;;;3.15;1.70;;;13.40;99.90;;;;;;5108849;28;20043;-74
2022/09/02 06:14:29;;;;;;;6.15;1.55;;;13.40;99.90;;;;;;5109758;28;20067;-74
2022/09/02 06:16:56;;;;;;;2.15;1.45;;;13.50;99.90;;;;;;5109754;28;20044;-74
2022/09/02 06:19:27;;;;;;;1.42;1.23;;;13.50;99.90;;;;;;5110139;28;20086;-74
2022/09/02 06:21:54;;;;;;;3.63;1.27;;;13.60;99.90;;;;;;5110469;28;20044;-74
2022/09/02 06:24:20;;;;;;;3.38;1.17;;;13.70;99.90;;;;;;5125316;28;20031;-73
2022/09/02 06:26:46;;;;;;;4.88;1.13;;;13.70;99.90;;;;;;5134570;28;20405;-74
2022/09/02 06:29:11;;;;;;;3.63;1.83;;;13.70;99.90;;;;;;5115504;28;20044;-74
2022/09/02 06:31:41;;;;;;;3.22;1.20;;;13.80;99.90;;;;;;5111014;28;20052;-74
2022/09/02 06:34:06;;;;;;;3.78;1.80;;;13.80;99.90;;;;;;5110175;28;20051;-74
2022/09/02 06:36:32;;;;;;;1.70;1.20;;;13.80;99.90;;;;;;5113872;28;20092;-74
2022/09/02 06:38:59;;;;;;;1.27;1.15;;;13.90;99.90;;;;;;5112394;28;20032;-74
2022/09/02 06:41:28;;;;;;;1.98;1.15;;;13.90;99.90;;;;;;5114482;28;20062;-74
2022/09/02 06:43:59;;;;;;;2.80;1.50;;;13.90;99.90;;;;;;5114414;28;20051;-74
2022/09/02 06:46:28;;;;;;;3.63;1.13;;;14.00;99.90;;;;;;5113896;28;20040;-74
2022/09/02 06:48:54;;;;;;;2.63;1.30;;;14.00;99.90;;;;;;5114233;28;20043;-74
2022/09/02 06:51:22;;;;;;;4.47;1.30;;;14.20;99.90;;;;;;5112364;28;20054;-74
2022/09/02 06:53:48;;;;;;;3.53;1.27;;;14.30;99.90;;;;;;5139847;27;20400;-74
2022/09/02 06:56:14;;;;;;;2.08;1.70;;;14.30;99.90;;;;;;5113924;28;20123;-74
2022/09/02 06:58:40;;;;;;;3.47;1.60;;;14.40;99.90;;;;;;5147109;27;20039;-74
2022/09/02 07:01:06;;;;;;;5.93;1.90;;;14.50;99.90;;;;;;5096500;28;20554;-74
2022/09/02 07:06:17;;;;;;;2.45;1.77;;;14.70;99.90;;;;;;5113459;28;20077;-74
2022/09/02 07:08:43;;;;;;;4.65;1.30;;;15.00;99.90;;;;;;5112965;28;20079;-74
2022/09/02 07:11:21;;;;;;;3.58;1.50;;;15.10;99.90;;;;;;5113070;28;20035;-74
2022/09/02 07:13:48;;;;;;;1.27;1.17;;;15.40;99.90;;;;;;5112032;28;20039;-74
2022/09/02 07:16:15;;;;;;;3.90;1.67;;;15.80;99.90;;;;;;5114207;28;20405;-74
2022/09/02 07:18:42;;;;;;;6.07;2.40;;;16.30;99.90;;;;;;5112935;28;20114;-74
2022/09/02 07:21:10;;;;;;;2.10;1.48;;;17.10;99.90;;;;;;5112769;28;20048;-74
2022/09/02 07:23:35;;;;;;;4.15;1.52;;;17.90;99.90;;;;;;5113402;28;20457;-74
2022/09/02 07:26:01;;;;;;;3.15;1.27;;;18.70;99.90;;;;;;5112720;28;20114;-75
2022/09/02 07:28:27;;;;;;;3.67;1.40;;;19.40;99.90;;;;;;5114317;28;20091;-75
2022/09/02 07:30:54;;;;;;;7.43;1.40;;;19.90;99.90;;;;;;5112961;28;20043;-75
2022/09/02 07:33:21;;;;;;;2.08;1.02;;;20.40;99.90;;;;;;5112088;28;20054;-75
2022/09/02 07:35:47;;;;;;;3.42;1.38;;;20.80;99.90;;;;;;5113803;28;20201;-75
2022/09/02 07:38:13;;;;;;;3.03;1.25;;;21.10;99.90;;;;;;5112992;28;20485;-75
2022/09/02 07:40:41;;;;;;;3.17;1.20;;;21.50;99.90;;;;;;5113186;28;20036;-75
2022/09/02 07:43:09;;;;;;;2.40;1.25;;;21.90;99.90;;;;;;5111516;28;20047;-76
2022/09/02 07:45:36;;;;;;;2.13;1.23;;;22.20;99.00;;;;;;5108325;28;20057;-75
2022/09/02 07:48:06;;;;;;;6.28;1.48;;;22.60;98.20;;;;;;5113321;28;20046;-75
2022/09/02 07:50:32;;;;;;;2.58;1.38;;;22.80;96.30;;;;;;5112635;28;20052;-75
2022/09/02 07:52:59;;;;;;;4.22;1.10;;;23.00;95.00;;;;;;5111784;28;20043;-75
2022/09/02 07:55:25;;;;;;;2.20;1.27;;;23.30;93.70;;;;;;5112561;28;20046;-75
2022/09/02 07:57:53;;;;;;;2.03;1.38;;;23.50;91.70;;;;;;5112452;28;20039;-75
2022/09/02 08:00:20;;;;;;;1.35;1.10;;;23.80;90.60;;;;;;5112399;28;20048;-75
2022/09/02 08:02:46;;;;;;;2.75;1.08;;;24.00;89.90;;;;;;5111812;28;20371;-76
2022/09/02 08:05:12;;;;;;;4.28;1.33;;;24.30;85.90;;;;;;5112019;28;20118;-75
2022/09/02 08:07:38;;;;;;;2.10;1.13;;;24.50;82.90;;;;;;5112010;28;20035;-75
2022/09/02 08:10:09;;;;;;;3.70;1.25;;;24.50;80.10;;;;;;5112288;28;20050;-75
2022/09/02 08:12:35;;;;;;;6.78;1.25;;;24.60;77.70;;;;;;5109239;28;20031;-75
2022/09/02 08:15:00;;;;;;;2.50;1.45;;;24.70;76.40;;;;;;5111696;28;20039;-75
2022/09/02 08:17:26;;;;;;;1.83;1.08;;;24.90;74.70;;;;;;5092869;28;20051;-75
2022/09/02 08:19:52;;;;;;;4.90;1.25;;;24.90;73.70;;;;;;5122041;27;20047;-75
2022/09/02 08:22:18;;;;;;;3.03;0.98;;;25.00;72.30;;;;;;5089809;28;20036;-75
2022/09/02 08:24:43;;;;;;;2.85;1.10;;;25.00;71.70;;;;;;5139211;27;20067;-76
2022/09/02 08:27:09;;;;;;;1.80;0.95;;;25.00;71.00;;;;;;5143412;27;20047;-75
2022/09/02 08:29:34;;;;;;;2.28;1.50;;;25.00;70.20;;;;;;5107595;28;20036;-76
2022/09/02 08:32:00;;;;;;;2.40;0.82;;;25.00;69.30;;;;;;5107444;28;20075;-76
2022/09/02 08:34:27;;;;;;;2.28;0.90;;;25.30;68.40;;;;;;5106543;28;20057;-76
2022/09/02 08:36:53;;;;;;;4.80;1.20;;;25.30;67.50;;;;;;5106668;28;20040;-75
2022/09/02 08:39:19;;;;;;;4.90;1.00;;;25.40;66.60;;;;;;5138376;27;20049;-76
2022/09/02 08:42:00;;;;;;;2.63;1.17;;;25.20;65.70;;;;;;5105771;28;20039;-75
2022/09/02 08:44:27;;;;;;;5.65;0.80;;;25.30;63.50;;;;;;5139520;27;20043;-76
2022/09/02 08:46:59;;;;;;;5.53;1.27;;;25.40;66.10;;;;;;5106316;28;20036;-76
2022/09/02 08:49:32;;;;;;;4.18;0.93;;;25.50;64.80;;;;;;5090132;28;20035;-76
2022/09/02 08:52:01;;;;;;;3.15;1.10;;;25.50;64.60;;;;;;5105135;28;20048;-75
2022/09/02 08:54:31;;;;;;;4.93;0.88;;;25.50;62.30;;;;;;5105613;28;20063;-76
2022/09/02 08:56:56;;;;;;;4.70;0.88;;;25.50;64.10;;;;;;5104313;28;20051;-76
2022/09/02 08:59:26;;;;;;;7.53;1.02;;;25.50;64.10;;;;;;5105628;28;20050;-75
2022/09/02 09:02:15;;;;;;;2.30;1.10;;;25.60;63.40;;;;;;5104495;28;20516;-76
2022/09/02 09:05:05;;;;;;;5.10;0.93;;;25.70;61.80;;;;;;5104389;28;20040;-76
2022/09/02 09:07:52;;;;;;;4.80;0.93;;;25.80;59.10;;;;;;5102497;28;20039;-75
2022/09/02 09:10:24;;;;;;;8.35;1.30;;;25.80;61.00;;;;;;5104095;28;20040;-75
2022/09/02 09:13:03;;;;;;;1.88;0.80;;;25.80;61.00;;;;;;5104027;28;20493;-75
2022/09/02 09:15:42;;;;;;;1.77;0.90;;;25.90;59.10;;;;;;5105643;28;20054;-75
2022/09/02 09:18:12;;;;;;;0.98;0.88;;;26.00;59.90;;;;;;5105384;28;20040;-76
2022/09/02 09:20:40;;;;;;;3.63;1.30;;;26.00;60.20;;;;;;5103764;28;20486;-75
2022/09/02 09:23:18;;;;;;;3.20;0.73;;;26.00;59.50;;;;;;5105080;28;20387;-75
2022/09/02 09:25:46;;;;;;;2.35;0.88;;;26.20;58.60;;;;;;5101706;28;20550;-75
2022/09/02 09:28:12;;;;;;;3.53;0.82;;;26.20;59.40;;;;;;5140311;27;20042;-75
2022/09/02 09:30:38;;;;;;;3.20;0.68;;;26.20;59.50;;;;;;5112179;28;20043;-75
2022/09/02 09:33:04;;;;;;;2.60;0.95;;;26.20;58.70;;;;;;5111337;28;20387;-76
2022/09/02 09:35:53;;;;;;;1.23;0.60;;;26.30;58.30;;;;;;5111302;28;20130;-76
2022/09/02 09:38:35;;;;;;;2.00;0.70;;;26.40;56.30;;;;;;5110577;28;20505;-75
2022/09/02 09:41:23;;;;;;;3.90;1.70;;;26.60;57.90;;;;;;5110501;28;20044;-76
2022/09/02 09:43:49;;;;;;;3.58;0.88;;;26.70;58.60;;;;;;5110603;28;20051;-76
2022/09/02 09:46:30;;;;;;;1.75;0.82;;;26.80;57.80;;;;;;5111368;28;20509;-76
2022/09/02 09:48:56;;;;;;;0.68;0.60;;;26.70;55.80;;;;;;5110327;28;20036;-76
2022/09/02 09:51:22;;;;;;;1.80;0.70;;;26.80;56.50;;;;;;5110610;28;20494;-83
2022/09/02 09:53:48;;;;;;;1.95;0.60;;;26.80;56.60;;;;;;5110626;28;20039;-82
2022/09/02 09:56:17;;;;;;;1.23;0.68;;;26.90;55.90;;;;;;5109114;28;20039;-78
2022/09/02 09:58:45;;;;;;;2.72;0.93;;;27.00;56.20;;;;;;5110332;28;20456;-78
2022/09/02 10:01:23;;;;;;;1.95;0.77;;;27.00;55.20;;;;;;5109708;28;20039;-76
2022/09/02 10:04:00;;;;;;;3.65;0.98;;;27.00;55.00;;;;;;5101439;28;20084;-77
2022/09/02 10:06:32;;;;;;;1.95;0.80;;;27.10;53.70;;;;;;5143846;27;20051;-76
2022/09/02 10:08:58;;;;;;;;;;;27.20;53.90;;;;;;5108865;28;20047;-77
2022/09/02 10:11:35;;;;;;;2.08;0.88;;;27.30;52.60;;;;;;5111280;28;19927;-75
2022/09/02 10:14:10;;;;;;;2.83;0.90;;;27.20;52.70;;;;;;5110123;28;20047;-76
2022/09/02 10:16:46;;;;;;;1.50;0.75;;;26.90;53.00;;;;;;5092748;28;20036;-75
2022/09/02 10:19:55;;;;;;;2.15;0.77;;;26.70;52.60;;;;;;5111547;28;20067;-82
2022/09/02 10:22:34;;;;;;;3.80;0.70;;;26.50;53.40;;;;;;5113016;28;20040;-82
2022/09/02 10:25:43;;;;;;;2.13;0.95;;;26.20;52.50;;;;;;5099055;28;20051;-83
2022/09/02 10:28:19;;;;;;;3.28;0.88;;;26.00;53.30;;;;;;5095067;28;20032;-82
2022/09/02 10:31:07;;;;;;;0.77;0.68;;;25.90;53.10;;;;;;5093798;28;20043;-82
2022/09/02 10:33:44;;;;;;;2.70;0.77;;;25.80;53.00;;;;;;5093416;28;20039;-81
2022/09/02 10:39:33;;;;;;;2.80;0.80;;;25.70;53.90;;;;;;5102390;22;20118;-83
2022/09/02 10:42:33;;;;;;;4.95;0.60;;;25.70;54.70;;;;;;5016686;28;20091;-83
2022/09/02 10:45:05;;;;;;;4.20;1.00;;;25.70;54.10;;;;;;5016439;28;20469;-83
2022/09/02 10:48:06;;;;;;;1.60;0.70;;;25.80;53.80;;;;;;5031374;28;20128;-83
2022/09/02 10:50:53;;;;;;;5.13;0.93;;;25.90;53.50;;;;;;5036434;28;20123;-82
2022/09/02 10:53:28;;;;;;;6.10;0.95;;;26.00;53.80;;;;;;5050216;28;20048;-83
2022/09/02 10:56:12;;;;;;;0.70;0.50;;;26.10;53.60;;;;;;5036348;28;20045;-76
2022/09/02 10:58:58;;;;;;;4.82;0.70;;;26.10;52.90;;;;;;5041111;28;20044;-83
2022/09/02 11:01:48;;;;;;;1.50;0.60;;;26.20;52.80;;;;;;5038273;28;20296;-82
2022/09/02 11:04:46;;;;;;;4.55;0.90;;;26.10;53.70;;;;;;5039219;28;20047;-82
2022/09/02 11:07:20;;;;;;;4.88;0.75;;;26.20;53.40;;;;;;5056121;28;20533;-82
2022/09/02 11:10:27;;;;;;;1.00;0.68;;;26.10;51.90;;;;;;5039630;28;20119;-83
2022/09/02 11:13:13;;;;;;;3.70;0.98;;;26.20;52.00;;;;;;4939322;28;20039;-82
2022/09/02 11:16:30;;;;;;;1.70;0.68;;;26.20;51.20;;;;;;4939649;28;20043;-83
2022/09/02 11:19:28;;;;;;;3.72;1.60;;;26.20;52.30;;;;;;4903608;28;20102;-82
2022/09/02 11:22:21;;;;;;;2.00;0.70;;;26.20;51.10;;;;;;4956808;28;20559;-83
2022/09/02 11:25:11;;;;;;;2.72;0.70;;;26.20;51.30;;;;;;4957331;28;20607;-82
2022/09/02 11:28:06;;;;;;;0.90;0.60;;;26.30;51.40;;;;;;4942774;28;20134;-82
2022/09/02 11:30:50;;;;;;;1.10;0.70;;;26.40;51.40;;;;;;4997982;28;20052;-82
2022/09/02 11:33:22;;;;;;;5.32;1.35;;;26.50;51.30;;;;;;5040006;28;20410;-82
2022/09/02 11:35:49;;;;;;;4.32;1.05;;;26.40;50.80;;;;;;5039438;28;20044;-82
2022/09/02 11:38:55;;;;;;;2.95;0.80;;;26.40;51.30;;;;;;5039745;28;20798;-82
2022/09/02 11:41:44;;;;;;;1.75;0.70;;;26.50;51.00;;;;;;5023621;28;20163;-83
2022/09/02 11:44:28;;;;;;;0.93;0.90;;;26.60;51.00;;;;;;5040465;28;20399;-83
2022/09/02 11:47:18;;;;;;;3.17;1.00;;;26.60;51.60;;;;;;5055659;28;20584;-82
2022/09/02 11:50:20;;;;;;;4.07;0.98;;;26.60;51.20;;;;;;5056328;28;20040;-83
2022/09/02 11:53:04;;;;;;;1.83;1.10;;;26.70;49.50;;;;;;5038872;28;20097;-82
2022/09/02 11:55:45;;;;;;;2.60;1.00;;;26.70;51.10;;;;;;5039626;28;20491;-83
2022/09/02 11:58:28;;;;;;;4.13;1.00;;;26.80;49.50;;;;;;5056673;28;20043;-82
2022/09/02 12:00:59;;;;;;;4.15;1.42;;;26.80;50.80;;;;;;5042931;28;20064;-82
2022/09/02 12:03:34;;;;;;;;;;;26.90;50.10;;;;;;5077713;28;20355;-82
2022/09/02 12:06:12;;;;;;;2.80;0.70;;;27.00;50.80;;;;;;5044508;28;19916;-81
2022/09/02 12:08:47;;;;;;;4.90;0.90;;;27.10;49.40;;;;;;5043230;28;20045;-82
2022/09/02 12:12:03;;;;;;;3.60;0.80;;;27.10;49.70;;;;;;5060716;28;20044;-82
2022/09/02 12:14:29;;;;;;;1.05;0.80;;;27.10;49.20;;;;;;5062620;28;20032;-81
2022/09/02 12:17:02;;;;;;;3.05;0.93;;;27.10;49.70;;;;;;5045405;28;20040;-82
2022/09/02 12:19:39;;;;;;;2.60;0.77;;;27.20;49.80;;;;;;5056375;28;20072;-83
2022/09/02 12:22:17;;;;;;;2.88;0.77;;;27.10;49.70;;;;;;5054957;28;20520;-82
2022/09/02 12:24:56;;;;;;;1.40;1.02;;;27.00;48.80;;;;;;5054640;28;20040;-82
2022/09/02 12:27:23;;;;;;;2.70;0.80;;;26.90;49.50;;;;;;5038518;28;20072;-83
2022/09/02 12:29:52;;;;;;;2.42;1.23;;;27.00;49.60;;;;;;5037852;28;20047;-82
2022/09/02 12:32:47;;;;;;;2.38;0.98;;;26.90;49.30;;;;;;5037598;28;20044;-82
2022/09/02 12:35:30;;;;;;;3.50;0.90;;;26.80;48.90;;;;;;5054730;28;20119;-82
2022/09/02 12:38:16;;;;;;;5.18;0.77;;;26.80;47.70;;;;;;5038908;28;20044;-82
2022/09/02 12:41:13;;;;;;;3.10;0.80;;;26.60;48.30;;;;;;5037094;28;20048;-83
2022/09/02 12:44:00;;;;;;;2.33;0.90;;;26.60;49.60;;;;;;5053757;28;20479;-83
2022/09/02 12:46:51;;;;;;;4.50;1.33;;;26.70;48.40;;;;;;5054061;23;20092;-83
2022/09/02 12:49:33;;;;;;;2.03;0.93;;;26.80;48.40;;;;;;5034708;28;20040;-83
2022/09/02 12:52:11;;;;;;;1.75;1.00;;;26.90;50.00;;;;;;5034275;28;20174;-84
2022/09/02 12:54:37;;;;;;;1.60;1.00;;;27.00;48.90;;;;;;5017828;28;20080;-82
2022/09/02 12:57:53;;;;;;;;;;;;;;;;;;;;;
2022/09/02 13:00:32;;;;;;;1.80;1.15;;;27.00;47.90;;;;;;5040442;28;20449;-82
2022/09/02 13:06:55;;;;;;;2.47;1.17;;;27.10;48.30;;;;;;5050292;28;20479;-83
2022/09/02 13:09:54;;;;;;;1.88;1.00;;;27.00;49.60;;;;;;5053213;28;20574;-83
2022/09/02 13:12:32;;;;;;;1.17;0.75;;;27.00;48.60;;;;;;5037439;28;20094;-83
2022/09/02 13:44:30;;;;;;;4.20;0.90;;;26.40;49.40;;;;;;5048338;28;20074;-82
2022/09/02 13:47:25;;;;;;;3.83;1.45;;;26.50;50.10;;;;;;5059197;28;20041;-82
2022/09/02 13:49:52;;;;;;;4.97;1.35;;;26.50;49.50;;;;;;5000710;28;20520;-83